Time;durP1;ratioP1;P1;durP2;ratioP2;P2;SDS_P1;SDS_P2;PMS_P1;PMS_P2;Temp;Humidity;BMP_temperature;BMP_pressure;BME280_temperature;BME280_humidity;BME280_pressure;Samples;Min_cycle;Max_cycle;Signal;HPM_P1;HPM_P2
2023/02/11 00:01:31;;;;;;;;;16.33;14.33;;;;;;;;119960;1190;25517;-65
2023/02/11 00:04:00;;;;;;;;;20.00;16.67;;;;;;;;119950;1182;24758;-65
2023/02/11 00:06:30;;;;;;;;;21.50;19.50;;;;;;;;119960;1182;25563;-65
2023/02/11 00:08:58;;;;;;;;;17.00;15.25;;;;;;;;119941;1182;25656;-65
2023/02/11 00:11:30;;;;;;;;;15.00;14.50;;;;;;;;120112;1190;25570;-65
2023/02/11 00:14:01;;;;;;;;;17.00;14.75;;;;;;;;119961;1182;25159;-64
2023/02/11 00:16:31;;;;;;;;;14.00;12.25;;;;;;;;119962;1190;25427;-63
2023/02/11 00:19:00;;;;;;;;;20.25;16.75;;;;;;;;119931;1190;25017;-63
2023/02/11 00:21:28;;;;;;;;;18.50;13.25;;;;;;;;119948;1190;24818;-63
2023/02/11 00:23:58;;;;;;;;;17.67;16.33;;;;;;;;119942;1190;24897;-63
2023/02/11 00:26:30;;;;;;;;;22.33;16.00;;;;;;;;119937;1190;25142;-64
2023/02/11 00:29:00;;;;;;;;;21.75;15.50;;;;;;;;119958;1190;25463;-63
2023/02/11 00:31:28;;;;;;;;;16.50;12.00;;;;;;;;119927;1190;24971;-62
2023/02/11 00:33:57;;;;;;;;;17.00;15.50;;;;;;;;120100;1189;25257;-62
2023/02/11 00:36:27;;;;;;;;;23.67;18.67;;;;;;;;120105;1190;24822;-63
2023/02/11 00:38:57;;;;;;;;;17.75;15.75;;;;;;;;120122;1182;25369;-63
2023/02/11 00:41:25;;;;;;;;;19.33;16.00;;;;;;;;119951;1182;25672;-62
2023/02/11 00:43:54;;;;;;;;;20.00;16.25;;;;;;;;120105;1189;25171;-62
2023/02/11 00:46:22;;;;;;;;;15.67;13.33;;;;;;;;119999;1190;24827;-63
2023/02/11 00:48:53;;;;;;;;;21.50;18.00;;;;;;;;119921;1190;25266;-62
2023/02/11 00:51:26;;;;;;;;;15.33;15.00;;;;;;;;119893;1190;24944;-62
2023/02/11 00:53:54;;;;;;;;;25.00;17.33;;;;;;;;119724;1190;24806;-62
2023/02/11 00:56:23;;;;;;;;;17.00;14.33;;;;;;;;119939;1190;25577;-62
2023/02/11 00:58:52;;;;;;;;;20.33;16.67;;;;;;;;119898;1190;25004;-62
2023/02/11 01:01:20;;;;;;;;;17.67;16.67;;;;;;;;120003;1190;25698;-62
2023/02/11 01:03:48;;;;;;;;;20.00;18.75;;;;;;;;119900;1187;25306;-62
2023/02/11 01:06:17;;;;;;;;;21.00;18.00;;;;;;;;119972;1190;25255;-63
2023/02/11 01:08:45;;;;;;;;;22.25;17.50;;;;;;;;119944;1190;25114;-63
2023/02/11 01:11:19;;;;;;;;;19.00;18.00;;;;;;;;120120;1182;25186;-63
2023/02/11 01:13:49;;;;;;;;;20.67;15.00;;;;;;;;120110;1182;25560;-63
2023/02/11 01:16:18;;;;;;;;;18.50;18.25;;;;;;;;119949;1190;25174;-63
2023/02/11 01:18:46;;;;;;;;;20.25;15.50;;;;;;;;119932;1189;24812;-63
2023/02/11 01:21:15;;;;;;;;;19.00;16.50;;;;;;;;120094;1190;25631;-63
2023/02/11 01:23:43;;;;;;;;;25.50;22.25;;;;;;;;120106;1189;25805;-63
2023/02/11 01:26:12;;;;;;;;;22.00;18.50;;;;;;;;120095;1189;25574;-63
2023/02/11 01:28:40;;;;;;;;;20.25;16.50;;;;;;;;119930;1190;25039;-63
2023/02/11 01:31:08;;;;;;;;;28.00;16.67;;;;;;;;120112;1189;25644;-63
2023/02/11 01:33:37;;;;;;;;;25.75;19.75;;;;;;;;120116;1182;25418;-63
2023/02/11 01:36:06;;;;;;;;;24.25;18.50;;;;;;;;120109;1189;25425;-63
2023/02/11 01:38:34;;;;;;;;;19.33;16.33;;;;;;;;119921;1189;24779;-63
2023/02/11 01:41:09;;;;;;;;;21.75;17.00;;;;;;;;119951;1189;25223;-63
2023/02/11 01:43:40;;;;;;;;;25.50;21.00;;;;;;;;120118;1182;25597;-63
2023/02/11 01:46:29;;;;;;;;;24.50;19.50;;;;;;;;120120;1181;25352;-63
2023/02/11 01:49:12;;;;;;;;;21.75;19.50;;;;;;;;120075;1190;25504;-63
2023/02/11 01:51:47;;;;;;;;;20.67;16.00;;;;;;;;119927;1190;25120;-63
2023/02/11 01:57:22;;;;;;;;;16.75;13.50;;;;;;;;119884;1182;24782;-63
2023/02/11 01:59:53;;;;;;;;;23.75;17.75;;;;;;;;119764;1190;25681;-63
2023/02/11 02:02:44;;;;;;;;;14.33;12.67;;;;;;;;119903;1190;25392;-63
2023/02/11 02:05:15;;;;;;;;;24.50;19.50;;;;;;;;119962;1177;24933;-63
2023/02/11 02:07:49;;;;;;;;;22.75;14.00;;;;;;;;119928;1182;25588;-62
2023/02/11 02:10:20;;;;;;;;;24.75;18.25;;;;;;;;119925;1190;25370;-62
2023/02/11 02:12:48;;;;;;;;;26.33;21.67;;;;;;;;119878;1190;25303;-63
2023/02/11 02:15:25;;;;;;;;;19.00;18.50;;;;;;;;119875;1190;25546;-63
2023/02/11 02:18:37;;;;;;;;;20.00;18.25;;;;;;;;119903;1190;25644;-63
2023/02/11 02:21:27;;;;;;;;;23.33;19.33;;;;;;;;119432;1186;25325;-63
2023/02/11 02:24:28;;;;;;;;;21.25;18.75;;;;;;;;119885;1190;25212;-64
2023/02/11 02:27:16;;;;;;;;;22.50;19.50;;;;;;;;119902;1190;24867;-63
2023/02/11 02:30:12;;;;;;;;;24.25;21.00;;;;;;;;119915;1186;24866;-63
2023/02/11 02:32:57;;;;;;;;;23.25;20.25;;;;;;;;119936;1182;25475;-64
2023/02/11 02:36:01;;;;;;;;;23.00;22.25;;;;;;;;119943;1181;24948;-64
2023/02/11 02:38:35;;;;;;;;;16.00;14.50;;;;;;;;119863;1190;25219;-63
2023/02/11 02:41:07;;;;;;;;;23.00;18.00;;;;;;;;119913;1190;25725;-63
2023/02/11 02:43:43;;;;;;;;;17.00;16.33;;;;;;;;119921;1182;25222;-64
2023/02/11 02:46:13;;;;;;;;;22.00;15.00;;;;;;;;119915;1190;25554;-64
2023/02/11 02:48:41;;;;;;;;;20.67;20.33;;;;;;;;119946;1190;26260;-64
2023/02/11 02:51:31;;;;;;;;;16.00;13.00;;;;;;;;119920;1190;25543;-64
2023/02/11 02:54:24;;;;;;;;;24.00;17.75;;;;;;;;120052;1186;24940;-64
2023/02/11 02:57:13;;;;;;;;;13.75;12.75;;;;;;;;120101;1190;25038;-64
2023/02/11 02:59:54;;;;;;;;;25.25;23.00;;;;;;;;120113;1190;25650;-64
2023/02/11 03:02:29;;;;;;;;;26.67;22.67;;;;;;;;119940;1190;25679;-64
2023/02/11 03:05:07;;;;;;;;;21.00;18.67;;;;;;;;119937;1190;24872;-64
2023/02/11 03:07:53;;;;;;;;;25.75;23.00;;;;;;;;119942;1182;25138;-64
2023/02/11 03:10:26;;;;;;;;;25.00;18.75;;;;;;;;119935;1190;24841;-64
2023/02/11 03:12:55;;;;;;;;;16.67;16.67;;;;;;;;119924;1190;25456;-64
2023/02/11 03:15:26;;;;;;;;;29.00;22.25;;;;;;;;119937;1183;25281;-63
2023/02/11 03:17:58;;;;;;;;;18.50;18.50;;;;;;;;120107;1190;25561;-62
2023/02/11 03:20:27;;;;;;;;;24.67;22.00;;;;;;;;119918;1190;25251;-62
2023/02/11 03:23:07;;;;;;;;;22.00;20.67;;;;;;;;119939;1190;24765;-63
2023/02/11 03:26:11;;;;;;;;;21.00;19.75;;;;;;;;120100;1190;26476;-63
2023/02/11 03:28:44;;;;;;;;;25.75;24.00;;;;;;;;120056;1190;25538;-63
2023/02/11 03:31:27;;;;;;;;;25.75;21.50;;;;;;;;119934;1190;25118;-63
2023/02/11 03:34:13;;;;;;;;;25.75;21.75;;;;;;;;119905;1190;25389;-63
2023/02/11 03:36:52;;;;;;;;;25.50;22.50;;;;;;;;119911;1190;25034;-63
2023/02/11 03:39:24;;;;;;;;;22.00;17.75;;;;;;;;119717;1190;25397;-63
2023/02/11 03:41:55;;;;;;;;;18.50;16.00;;;;;;;;119883;1182;25217;-63
2023/02/11 03:44:25;;;;;;;;;21.33;20.00;;;;;;;;119731;1184;26385;-63
2023/02/11 03:46:54;;;;;;;;;21.33;21.33;;;;;;;;119901;1189;25589;-63
2023/02/11 03:49:26;;;;;;;;;21.25;18.00;;;;;;;;119894;1182;25210;-63
2023/02/11 03:51:55;;;;;;;;;26.50;21.00;;;;;;;;119899;1190;25698;-63
2023/02/11 03:54:28;;;;;;;;;24.00;20.50;;;;;;;;119890;1190;25433;-63
2023/02/11 03:56:58;;;;;;;;;29.50;24.25;;;;;;;;119896;1190;25566;-63
2023/02/11 03:59:27;;;;;;;;;23.00;21.33;;;;;;;;119919;1183;24919;-63
2023/02/11 04:01:58;;;;;;;;;21.50;21.50;;;;;;;;119917;1190;25356;-63
2023/02/11 04:04:26;;;;;;;;;21.00;17.00;;;;;;;;119942;1190;25367;-63
2023/02/11 04:06:55;;;;;;;;;23.50;22.00;;;;;;;;119912;1186;25388;-63
2023/02/11 04:09:23;;;;;;;;;25.33;23.00;;;;;;;;119932;1190;26170;-63
2023/02/11 04:11:51;;;;;;;;;23.00;19.50;;;;;;;;119923;1190;24789;-63
2023/02/11 04:14:19;;;;;;;;;24.25;21.00;;;;;;;;119913;1186;25557;-63
2023/02/11 04:16:47;;;;;;;;;25.50;23.50;;;;;;;;119918;1190;25325;-63
2023/02/11 04:19:16;;;;;;;;;23.00;19.00;;;;;;;;119950;1190;25745;-63
2023/02/11 04:21:44;;;;;;;;;22.75;20.00;;;;;;;;119921;1182;24791;-62
2023/02/11 04:24:12;;;;;;;;;20.75;18.75;;;;;;;;119922;1190;25090;-62
2023/02/11 04:26:40;;;;;;;;;22.50;21.25;;;;;;;;120109;1186;24805;-63
2023/02/11 04:29:10;;;;;;;;;25.25;22.25;;;;;;;;119939;1190;25267;-63
2023/02/11 04:31:38;;;;;;;;;23.25;22.00;;;;;;;;120111;1186;25564;-63
2023/02/11 04:34:07;;;;;;;;;20.25;19.25;;;;;;;;120117;1182;24992;-63
2023/02/11 04:36:35;;;;;;;;;23.00;20.00;;;;;;;;120109;1190;25542;-63
2023/02/11 04:39:03;;;;;;;;;22.67;19.67;;;;;;;;120095;1190;24817;-63
2023/02/11 04:41:32;;;;;;;;;23.67;20.33;;;;;;;;120109;1189;26366;-63
2023/02/11 04:44:00;;;;;;;;;22.00;20.67;;;;;;;;119936;1190;24725;-63
2023/02/11 04:46:28;;;;;;;;;20.00;15.67;;;;;;;;120127;1190;25594;-63
2023/02/11 04:48:57;;;;;;;;;22.33;19.33;;;;;;;;119944;1190;25681;-63
2023/02/11 04:51:25;;;;;;;;;20.25;19.75;;;;;;;;120123;1182;24907;-63
2023/02/11 04:53:53;;;;;;;;;21.75;18.50;;;;;;;;120112;1190;24683;-63
2023/02/11 04:56:22;;;;;;;;;21.25;19.25;;;;;;;;119936;1182;25223;-63
2023/02/11 04:58:50;;;;;;;;;20.00;20.00;;;;;;;;120113;1189;24886;-63
2023/02/11 05:01:18;;;;;;;;;26.00;23.00;;;;;;;;120013;1186;24916;-63
2023/02/11 05:03:47;;;;;;;;;24.75;20.25;;;;;;;;119923;1182;25064;-63
2023/02/11 05:06:16;;;;;;;;;22.00;20.67;;;;;;;;119725;1188;24954;-63
2023/02/11 05:08:45;;;;;;;;;31.50;24.00;;;;;;;;119893;1190;25622;-63
2023/02/11 05:11:16;;;;;;;;;24.25;24.25;;;;;;;;119934;1182;25543;-63
2023/02/11 05:13:44;;;;;;;;;27.00;23.67;;;;;;;;119908;1182;25677;-63
2023/02/11 05:16:13;;;;;;;;;29.50;21.50;;;;;;;;119739;1190;25113;-63
2023/02/11 05:18:43;;;;;;;;;27.25;20.50;;;;;;;;119942;1190;25548;-63
2023/02/11 05:21:14;;;;;;;;;25.33;23.67;;;;;;;;119726;1184;25399;-64
2023/02/11 05:23:44;;;;;;;;;28.33;22.67;;;;;;;;119800;1190;25134;-64
2023/02/11 05:26:13;;;;;;;;;30.75;24.25;;;;;;;;119906;1190;25003;-64
2023/02/11 05:28:41;;;;;;;;;23.00;21.67;;;;;;;;119705;1190;25277;-64
2023/02/11 05:31:10;;;;;;;;;23.75;21.50;;;;;;;;119900;1190;25025;-64
2023/02/11 05:33:39;;;;;;;;;22.33;20.67;;;;;;;;119905;1190;25010;-64
2023/02/11 05:36:10;;;;;;;;;22.67;19.33;;;;;;;;119899;1190;24909;-65
2023/02/11 05:38:39;;;;;;;;;21.33;20.33;;;;;;;;119906;1190;25453;-64
2023/02/11 05:41:08;;;;;;;;;24.67;23.33;;;;;;;;119790;1190;25240;-64
2023/02/11 05:43:37;;;;;;;;;17.67;13.67;;;;;;;;119729;1190;25270;-65
2023/02/11 05:46:05;;;;;;;;;26.75;21.00;;;;;;;;119723;1184;24972;-64
2023/02/11 05:48:34;;;;;;;;;25.50;21.75;;;;;;;;119910;1187;25523;-61
2023/02/11 05:51:02;;;;;;;;;26.25;21.50;;;;;;;;119936;1190;25603;-61
2023/02/11 05:53:30;;;;;;;;;26.25;23.75;;;;;;;;120003;1186;24835;-64
2023/02/11 05:55:59;;;;;;;;;21.67;20.67;;;;;;;;119995;1185;25247;-64
2023/02/11 05:58:27;;;;;;;;;26.33;20.67;;;;;;;;119927;1183;25498;-64
2023/02/11 06:00:56;;;;;;;;;23.67;22.00;;;;;;;;119735;1188;25354;-64
2023/02/11 06:03:24;;;;;;;;;18.33;17.67;;;;;;;;119927;1182;25490;-64
2023/02/11 06:05:52;;;;;;;;;21.33;17.67;;;;;;;;119933;1190;25324;-66
2023/02/11 06:08:21;;;;;;;;;14.00;14.00;;;;;;;;119942;1190;25624;-64
2023/02/11 06:10:49;;;;;;;;;20.50;17.00;;;;;;;;119943;1190;25613;-62
2023/02/11 06:13:18;;;;;;;;;21.67;21.00;;;;;;;;119911;1179;25009;-67
2023/02/11 06:15:58;;;;;;;;;20.00;18.00;;;;;;;;119898;1190;25083;-65
2023/02/11 06:18:27;;;;;;;;;17.00;17.00;;;;;;;;119949;1181;24836;-65
2023/02/11 06:20:55;;;;;;;;;26.75;20.75;;;;;;;;119887;1183;24865;-64
2023/02/11 06:23:24;;;;;;;;;21.00;17.25;;;;;;;;119874;1187;25228;-64
2023/02/11 06:25:52;;;;;;;;;26.00;21.25;;;;;;;;120095;1190;24915;-67
2023/02/11 06:28:20;;;;;;;;;14.00;12.00;;;;;;;;120114;1190;25064;-66
2023/02/11 06:30:49;;;;;;;;;24.67;19.33;;;;;;;;120115;1190;25494;-66
2023/02/11 06:33:17;;;;;;;;;20.25;17.25;;;;;;;;120120;1181;25181;-65
2023/02/11 06:35:45;;;;;;;;;23.00;19.00;;;;;;;;120109;1190;24695;-66
2023/02/11 06:38:14;;;;;;;;;18.75;18.75;;;;;;;;120121;1190;25278;-65
2023/02/11 06:40:47;;;;;;;;;16.50;13.75;;;;;;;;120115;1189;25253;-66
2023/02/11 06:43:16;;;;;;;;;21.00;18.00;;;;;;;;119924;1188;24849;-65
2023/02/11 06:45:44;;;;;;;;;21.25;16.00;;;;;;;;119916;1190;25309;-63
2023/02/11 06:48:12;;;;;;;;;19.00;15.00;;;;;;;;120103;1190;25486;-65
2023/02/11 06:50:40;;;;;;;;;19.50;18.00;;;;;;;;120109;1190;25645;-63
2023/02/11 06:53:09;;;;;;;;;21.00;18.00;;;;;;;;120111;1190;24891;-62
2023/02/11 06:55:37;;;;;;;;;26.00;18.25;;;;;;;;120108;1189;25419;-61
2023/02/11 06:58:05;;;;;;;;;23.00;18.33;;;;;;;;119965;1183;24818;-61
2023/02/11 07:00:33;;;;;;;;;18.75;15.75;;;;;;;;120088;1190;24917;-61
2023/02/11 07:03:02;;;;;;;;;22.67;17.67;;;;;;;;120117;1189;25293;-61
2023/02/11 07:05:33;;;;;;;;;21.50;20.50;;;;;;;;120107;1190;25599;-62
2023/02/11 07:08:01;;;;;;;;;19.75;17.75;;;;;;;;120108;1189;24771;-62
2023/02/11 07:10:29;;;;;;;;;15.00;12.00;;;;;;;;120099;1181;24755;-62
2023/02/11 07:12:57;;;;;;;;;22.25;18.00;;;;;;;;120109;1189;25648;-62
2023/02/11 07:15:26;;;;;;;;;21.00;19.25;;;;;;;;120110;1190;25322;-63
2023/02/11 07:17:54;;;;;;;;;22.75;19.25;;;;;;;;119945;1190;25204;-62
2023/02/11 07:20:22;;;;;;;;;21.50;19.50;;;;;;;;120103;1190;25515;-62
2023/02/11 07:22:50;;;;;;;;;20.25;18.50;;;;;;;;119894;1190;25519;-62
2023/02/11 07:25:19;;;;;;;;;24.00;19.25;;;;;;;;119895;1190;25125;-64
2023/02/11 07:27:48;;;;;;;;;16.33;15.33;;;;;;;;119924;1190;24986;-64
2023/02/11 07:30:17;;;;;;;;;17.00;14.00;;;;;;;;119923;1190;25416;-62
2023/02/11 07:32:45;;;;;;;;;21.50;19.25;;;;;;;;119918;1190;25360;-66
2023/02/11 07:35:13;;;;;;;;;17.25;12.25;;;;;;;;119882;1190;25552;-63
2023/02/11 07:37:42;;;;;;;;;22.00;20.50;;;;;;;;119889;1190;25016;-61
2023/02/11 07:40:10;;;;;;;;;22.00;19.00;;;;;;;;119940;1190;25521;-62
2023/02/11 07:42:40;;;;;;;;;21.75;20.00;;;;;;;;119930;1190;24719;-60
2023/02/11 07:45:08;;;;;;;;;19.67;17.67;;;;;;;;119934;1177;25706;-63
2023/02/11 07:47:37;;;;;;;;;25.33;19.00;;;;;;;;119915;1190;25352;-63
2023/02/11 07:50:06;;;;;;;;;21.50;21.00;;;;;;;;119895;1190;25280;-63
2023/02/11 07:52:34;;;;;;;;;22.00;17.25;;;;;;;;119932;1190;25181;-64
2023/02/11 07:55:03;;;;;;;;;22.75;20.75;;;;;;;;119909;1190;24809;-63
2023/02/11 07:57:31;;;;;;;;;24.50;20.75;;;;;;;;120109;1190;25787;-65
2023/02/11 08:00:00;;;;;;;;;24.75;20.50;;;;;;;;120036;1186;25227;-61
2023/02/11 08:02:28;;;;;;;;;22.00;18.67;;;;;;;;120034;1186;25111;-60
2023/02/11 08:04:56;;;;;;;;;23.50;20.50;;;;;;;;120042;1190;25376;-61
2023/02/11 08:07:25;;;;;;;;;26.25;22.75;;;;;;;;119929;1186;25027;-61
2023/02/11 08:09:54;;;;;;;;;24.33;19.67;;;;;;;;119902;1179;24809;-65
2023/02/11 08:12:22;;;;;;;;;23.25;20.50;;;;;;;;119940;1182;25543;-61
2023/02/11 08:14:50;;;;;;;;;21.00;17.75;;;;;;;;119876;1190;24890;-62
2023/02/11 08:17:19;;;;;;;;;26.00;21.75;;;;;;;;119951;1190;24869;-62
2023/02/11 08:19:47;;;;;;;;;24.75;21.25;;;;;;;;120103;1189;25132;-61
2023/02/11 08:22:15;;;;;;;;;24.50;20.75;;;;;;;;120111;1182;26290;-62
2023/02/11 08:24:44;;;;;;;;;17.00;13.00;;;;;;;;120109;1189;24728;-62
2023/02/11 08:27:12;;;;;;;;;23.67;19.67;;;;;;;;120109;1189;24776;-61
2023/02/11 08:29:40;;;;;;;;;21.50;21.50;;;;;;;;120112;1189;24761;-63
2023/02/11 08:32:08;;;;;;;;;21.25;18.50;;;;;;;;120121;1189;25585;-62
2023/02/11 08:34:37;;;;;;;;;25.00;21.67;;;;;;;;120106;1189;25486;-62
2023/02/11 08:37:05;;;;;;;;;21.50;17.00;;;;;;;;120132;1189;25186;-62
2023/02/11 08:39:33;;;;;;;;;24.67;20.33;;;;;;;;119947;1190;24938;-61
2023/02/11 08:42:02;;;;;;;;;27.00;20.00;;;;;;;;120123;1189;24975;-62
2023/02/11 08:44:30;;;;;;;;;15.25;12.25;;;;;;;;119935;1190;25232;-64
2023/02/11 08:46:58;;;;;;;;;29.00;24.50;;;;;;;;119932;1182;25002;-63
2023/02/11 08:49:27;;;;;;;;;20.00;18.50;;;;;;;;119940;1190;25209;-65
2023/02/11 08:51:58;;;;;;;;;25.50;18.00;;;;;;;;120103;1189;25179;-65
2023/02/11 08:54:26;;;;;;;;;23.00;22.67;;;;;;;;119938;1187;25631;-66
2023/02/11 08:56:55;;;;;;;;;22.00;20.67;;;;;;;;120120;1189;25558;-60
2023/02/11 08:59:23;;;;;;;;;26.33;23.00;;;;;;;;120123;1183;25311;-62
2023/02/11 09:01:51;;;;;;;;;32.33;22.33;;;;;;;;119965;1182;24761;-63
2023/02/11 09:04:20;;;;;;;;;29.50;23.50;;;;;;;;120109;1190;25715;-65
2023/02/11 09:06:48;;;;;;;;;27.00;24.50;;;;;;;;120116;1182;25191;-65
2023/02/11 09:09:17;;;;;;;;;23.50;21.00;;;;;;;;119962;1182;24918;-66
2023/02/11 09:11:45;;;;;;;;;28.25;22.25;;;;;;;;120023;1190;25542;-64
2023/02/11 09:14:19;;;;;;;;;27.00;21.00;;;;;;;;119961;1182;24952;-64
2023/02/11 09:16:47;;;;;;;;;29.67;21.33;;;;;;;;119938;1190;25557;-60
2023/02/11 09:19:17;;;;;;;;;27.75;22.50;;;;;;;;119742;1190;25594;-61
2023/02/11 09:21:45;;;;;;;;;26.00;21.00;;;;;;;;119875;1190;25347;-60
2023/02/11 09:24:14;;;;;;;;;25.33;24.67;;;;;;;;119921;1190;24975;-60
2023/02/11 09:26:43;;;;;;;;;26.33;19.67;;;;;;;;119959;1182;25169;-62
2023/02/11 09:29:11;;;;;;;;;29.50;27.50;;;;;;;;120118;1190;25524;-62
2023/02/11 09:31:40;;;;;;;;;29.00;19.67;;;;;;;;119938;1182;25244;-62
2023/02/11 09:34:09;;;;;;;;;31.00;25.67;;;;;;;;120109;1190;24917;-62
2023/02/11 09:36:39;;;;;;;;;26.50;22.25;;;;;;;;119947;1187;25602;-61
2023/02/11 09:39:14;;;;;;;;;29.33;24.33;;;;;;;;119930;1190;25345;-62
2023/02/11 09:42:11;;;;;;;;;26.50;20.25;;;;;;;;119931;1190;24844;-64
2023/02/11 09:44:43;;;;;;;;;26.50;22.75;;;;;;;;119979;1181;25227;-60
2023/02/11 09:47:45;;;;;;;;;24.75;20.00;;;;;;;;119918;1190;24904;-61
2023/02/11 09:50:23;;;;;;;;;24.75;22.50;;;;;;;;119671;1190;24699;-61
2023/02/11 09:53:25;;;;;;;;;27.50;23.00;;;;;;;;119887;1190;25455;-60
2023/02/11 09:55:56;;;;;;;;;26.00;23.25;;;;;;;;119867;1190;25341;-59
2023/02/11 09:58:33;;;;;;;;;19.33;16.33;;;;;;;;119909;1190;25651;-61
2023/02/11 10:01:01;;;;;;;;;28.50;24.00;;;;;;;;119739;1190;26541;-60
2023/02/11 10:04:18;;;;;;;;;30.50;24.75;;;;;;;;119910;1190;26401;-61
2023/02/11 10:06:50;;;;;;;;;33.25;30.00;;;;;;;;119833;1189;25474;-61
2023/02/11 10:09:32;;;;;;;;;32.00;27.50;;;;;;;;120097;1189;24799;-60
2023/02/11 10:12:31;;;;;;;;;37.00;28.00;;;;;;;;120107;1182;25640;-62
2023/02/11 10:15:17;;;;;;;;;35.00;29.00;;;;;;;;120013;1185;25308;-60
2023/02/11 10:18:09;;;;;;;;;27.00;25.00;;;;;;;;119963;1186;25476;-63
2023/02/11 10:20:50;;;;;;;;;31.00;24.00;;;;;;;;120110;1190;24789;-64
2023/02/11 10:23:23;;;;;;;;;38.00;30.33;;;;;;;;119887;1187;24839;-64
2023/02/11 10:25:55;;;;;;;;;31.33;24.67;;;;;;;;119918;1182;24853;-64
2023/02/11 10:28:29;;;;;;;;;66.00;45.33;;;;;;;;120039;1185;25442;-62
2023/02/11 10:31:16;;;;;;;;;48.00;37.00;;;;;;;;120033;1186;25125;-66
2023/02/11 10:33:57;;;;;;;;;47.00;35.00;;;;;;;;119933;1183;25756;-64
2023/02/11 10:36:29;;;;;;;;;58.50;41.00;;;;;;;;120123;1189;24916;-63
2023/02/11 10:38:59;;;;;;;;;48.00;35.67;;;;;;;;120092;1189;24745;-65
2023/02/11 10:41:33;;;;;;;;;55.33;40.33;;;;;;;;119926;1189;25326;-64
2023/02/11 10:44:01;;;;;;;;;36.00;27.00;;;;;;;;119921;1189;25178;-62
2023/02/11 10:46:32;;;;;;;;;61.00;44.00;;;;;;;;119927;1190;25229;-62
2023/02/11 10:49:02;;;;;;;;;65.00;45.33;;;;;;;;119932;1183;25293;-62
2023/02/11 10:51:36;;;;;;;;;69.33;46.67;;;;;;;;119933;1189;25231;-61
2023/02/11 10:54:08;;;;;;;;;51.50;38.00;;;;;;;;119759;1190;25120;-63
2023/02/11 10:56:53;;;;;;;;;60.00;44.00;;;;;;;;119925;1190;25768;-62
2023/02/11 10:59:39;;;;;;;;;58.00;40.00;;;;;;;;119924;1182;25701;-63
2023/02/11 11:02:42;;;;;;;;;62.67;41.33;;;;;;;;119918;1190;25749;-63
2023/02/11 11:05:17;;;;;;;;;59.00;40.00;;;;;;;;119957;1182;25357;-60
2023/02/11 11:07:57;;;;;;;;;53.00;39.00;;;;;;;;119926;1190;25078;-60
2023/02/11 11:10:28;;;;;;;;;54.00;39.00;;;;;;;;119922;1182;25443;-61
2023/02/11 11:12:56;;;;;;;;;60.67;40.33;;;;;;;;120091;1190;24969;-61
2023/02/11 11:15:30;;;;;;;;;58.00;42.00;;;;;;;;119928;1190;25034;-61
2023/02/11 11:18:17;;;;;;;;;47.67;39.33;;;;;;;;119903;1190;25209;-60
2023/02/11 11:20:59;;;;;;;;;61.67;42.67;;;;;;;;120121;1182;25001;-60
2023/02/11 11:23:30;;;;;;;;;58.00;40.00;;;;;;;;119929;1190;25364;-60
2023/02/11 11:26:06;;;;;;;;;62.00;43.33;;;;;;;;119937;1182;25703;-60
2023/02/11 11:28:55;;;;;;;;;55.67;41.33;;;;;;;;119926;1190;25463;-61
2023/02/11 11:31:30;;;;;;;;;60.33;41.00;;;;;;;;119920;1190;25574;-61
2023/02/11 11:34:01;;;;;;;;;56.67;41.67;;;;;;;;120103;1190;25577;-61
2023/02/11 11:36:35;;;;;;;;;55.00;40.50;;;;;;;;119950;1190;25684;-61
2023/02/11 11:39:16;;;;;;;;;53.00;40.00;;;;;;;;120122;1185;25169;-61
2023/02/11 11:41:59;;;;;;;;;57.00;40.00;;;;;;;;120108;1190;25600;-61
2023/02/11 11:44:35;;;;;;;;;55.00;38.67;;;;;;;;120116;1190;25031;-61
2023/02/11 11:47:19;;;;;;;;;56.00;40.00;;;;;;;;120108;1190;25035;-61
2023/02/11 11:49:55;;;;;;;;;52.50;36.50;;;;;;;;119942;1190;25522;-60
2023/02/11 11:52:42;;;;;;;;;58.33;41.00;;;;;;;;119902;1182;24981;-61
2023/02/11 11:55:25;;;;;;;;;52.50;40.50;;;;;;;;120104;1190;24857;-61
2023/02/11 11:57:53;;;;;;;;;52.67;39.67;;;;;;;;119919;1183;25135;-60
2023/02/11 12:00:35;;;;;;;;;52.67;39.33;;;;;;;;120104;1189;25639;-60
2023/02/11 12:03:03;;;;;;;;;55.00;40.50;;;;;;;;119769;1190;25046;-60
2023/02/11 12:05:49;;;;;;;;;59.67;40.00;;;;;;;;120092;1190;25301;-60
2023/02/11 12:08:31;;;;;;;;;55.33;40.00;;;;;;;;119941;1190;24974;-61
2023/02/11 12:11:12;;;;;;;;;56.67;39.33;;;;;;;;120115;1190;25781;-61
2023/02/11 12:14:04;;;;;;;;;50.00;42.00;;;;;;;;120103;1190;24804;-61
2023/02/11 12:16:56;;;;;;;;;50.50;38.00;;;;;;;;120099;1182;24796;-60
2023/02/11 12:19:33;;;;;;;;;56.67;40.33;;;;;;;;120027;1190;25219;-60
2023/02/11 12:22:43;;;;;;;;;61.50;40.00;;;;;;;;120110;1190;24909;-60
2023/02/11 12:25:34;;;;;;;;;54.50;37.00;;;;;;;;119893;1190;25343;-60
2023/02/11 12:28:14;;;;;;;;;53.00;39.67;;;;;;;;119952;1190;25127;-60
2023/02/11 12:30:48;;;;;;;;;48.00;37.50;;;;;;;;120109;1190;25053;-60
2023/02/11 12:33:33;;;;;;;;;55.00;39.00;;;;;;;;119948;1190;25480;-61
2023/02/11 12:36:11;;;;;;;;;52.00;37.67;;;;;;;;120123;1190;25422;-60
2023/02/11 12:38:55;;;;;;;;;50.00;38.00;;;;;;;;120112;1190;24883;-61
2023/02/11 12:44:58;;;;;;;;;51.67;37.33;;;;;;;;119411;1181;24825;-61
2023/02/11 12:48:00;;;;;;;;;53.00;36.00;;;;;;;;120115;1189;25616;-61
2023/02/11 12:51:00;;;;;;;;;51.00;38.50;;;;;;;;119960;1182;24736;-61
2023/02/11 12:53:50;;;;;;;;;42.00;36.00;;;;;;;;119942;1190;24980;-60
2023/02/11 12:56:31;;;;;;;;;47.50;37.50;;;;;;;;119929;1189;24913;-60
2023/02/11 12:59:00;;;;;;;;;53.67;37.00;;;;;;;;120119;1190;25612;-61
2023/02/11 13:01:34;;;;;;;;;43.00;34.67;;;;;;;;119934;1190;25336;-60
2023/02/11 13:04:14;;;;;;;;;47.00;38.00;;;;;;;;119949;1187;25510;-61
2023/02/11 13:06:49;;;;;;;;;48.67;36.00;;;;;;;;119976;1182;25732;-61
2023/02/11 13:09:29;;;;;;;;;44.67;34.67;;;;;;;;119946;1188;25564;-60
2023/02/11 13:13:15;;;;;;;;;46.33;37.00;;;;;;;;119909;1190;24854;-60
2023/02/11 13:14:51;;;;;;;;;46.33;37.67;;;;;;;;120109;1190;25321;-60
2023/02/11 13:17:27;;;;;;;;;52.00;38.50;;;;;;;;119946;1190;25246;-60
2023/02/11 13:20:14;;;;;;;;;48.67;36.33;;;;;;;;119940;1190;24888;-61
2023/02/11 13:22:56;;;;;;;;;47.50;36.50;;;;;;;;119930;1190;25023;-60
2023/02/11 13:25:35;;;;;;;;;48.00;36.67;;;;;;;;119921;1190;25176;-61
2023/02/11 13:28:15;;;;;;;;;53.67;35.67;;;;;;;;119927;1190;25471;-61
2023/02/11 13:30:50;;;;;;;;;51.67;37.00;;;;;;;;120106;1190;24884;-61
2023/02/11 13:33:31;;;;;;;;;38.50;28.00;;;;;;;;120107;1189;25536;-62
2023/02/11 13:35:59;;;;;;;;;47.00;36.00;;;;;;;;120114;1189;24712;-61
2023/02/11 13:38:31;;;;;;;;;52.33;39.33;;;;;;;;120119;1182;25417;-61
2023/02/11 13:41:18;;;;;;;;;49.50;36.00;;;;;;;;119955;1190;25122;-61
2023/02/11 13:44:21;;;;;;;;;42.67;35.00;;;;;;;;119917;1184;24751;-61
2023/02/11 13:46:58;;;;;;;;;47.67;35.33;;;;;;;;119992;1182;25470;-61
2023/02/11 13:49:39;;;;;;;;;46.00;32.00;;;;;;;;119944;1190;25053;-60
2023/02/11 13:52:28;;;;;;;;;49.00;40.00;;;;;;;;119938;1189;24907;-61
2023/02/11 13:55:04;;;;;;;;;47.50;36.00;;;;;;;;119936;1190;25455;-61
2023/02/11 13:57:35;;;;;;;;;49.33;36.00;;;;;;;;119933;1182;25381;-61
2023/02/11 14:00:32;;;;;;;;;48.00;37.50;;;;;;;;119926;1190;25397;-60
2023/02/11 14:09:07;;;;;;;;;40.67;33.33;;;;;;;;120128;1182;25572;-61
2023/02/11 14:11:39;;;;;;;;;48.33;33.33;;;;;;;;120107;1189;25567;-61
2023/02/11 14:14:27;;;;;;;;;47.00;36.67;;;;;;;;120119;1190;25488;-61
2023/02/11 14:17:01;;;;;;;;;45.50;36.00;;;;;;;;119942;1183;25694;-61
2023/02/11 14:19:46;;;;;;;;;47.50;37.00;;;;;;;;120128;1181;24816;-60
2023/02/11 14:22:22;;;;;;;;;40.67;30.67;;;;;;;;119943;1182;25183;-60
2023/02/11 14:24:57;;;;;;;;;49.00;39.00;;;;;;;;119929;1190;25711;-61
2023/02/11 14:27:55;;;;;;;;;44.33;33.67;;;;;;;;120108;1190;25579;-60
2023/02/11 14:30:47;;;;;;;;;45.50;35.00;;;;;;;;120096;1190;24936;-62
2023/02/11 14:33:21;;;;;;;;;47.00;37.50;;;;;;;;119930;1190;25615;-60
2023/02/11 14:35:57;;;;;;;;;43.33;35.67;;;;;;;;120109;1190;25663;-61
2023/02/11 14:38:47;;;;;;;;;43.67;34.00;;;;;;;;120124;1182;25622;-61
2023/02/11 14:41:22;;;;;;;;;45.67;35.67;;;;;;;;119931;1190;25327;-62
2023/02/11 14:44:04;;;;;;;;;40.00;32.00;;;;;;;;119960;1190;25159;-61
2023/02/11 14:46:32;;;;;;;;;43.00;33.33;;;;;;;;119931;1182;25140;-61
2023/02/11 14:49:03;;;;;;;;;45.00;35.33;;;;;;;;119952;1190;25368;-61
2023/02/11 14:51:35;;;;;;;;;46.00;36.00;;;;;;;;119924;1190;25732;-61
2023/02/11 14:54:18;;;;;;;;;44.50;35.50;;;;;;;;119916;1182;25401;-61
2023/02/11 14:56:46;;;;;;;;;41.00;34.33;;;;;;;;120109;1190;25334;-61